Everett, Ohio
Current Conditions -  °F | °C
As of 7:54 PM on Tuesday 21 Oct 2014 (Local Time) from KAKR Reporting Station
Light Rain Light Rain  
Wind Chill: 44°   Ceiling: 800
Heat Index: 48°   Visibility: 5mi
Dew Point: 45°   Wind: 8mph
Humidity: 89%   Direction: 330°NNW
Pressure: 30.04"   Gusts: NA
Location:  41.2321°N, 81.5556°W
Report Text: KAKR 212354Z AUTO 33007KT 5SM -RA BR OVC008 09/07 A3004 RMK AO2 CIG 005V012 SLP173 P0000 60002 T00890072 10106 20089 53011
Loading
Personal Weather Stations






























Interactive Weather Map
Tropical Storm Tracking
New forecast layout! Learn more

10-Day Weather Forecast

Advertisements
Track Severe Weather on mobile